Time;durP1;ratioP1;P1;durP2;ratioP2;P2;SDS_P1;SDS_P2;PMS_P1;PMS_P2;Temp;Humidity;BMP_temperature;BMP_pressure;BME280_temperature;BME280_humidity;BME280_pressure;Samples;Min_cycle;Max_cycle;Signal;HPM_P1;HPM_P2
2021/03/26 00:00:56;;;;;;;3.33;1.90;;;19.80;47.80;;;;;;7711172;23;20116;-66
2021/03/26 00:04:00;;;;;;;2.67;1.98;;;19.80;47.80;;;;;;7712009;23;20432;-66
2021/03/26 00:07:00;;;;;;;4.55;2.28;;;19.80;48.50;;;;;;7711782;23;20087;-66
2021/03/26 00:10:01;;;;;;;3.47;2.15;;;19.80;47.80;;;;;;7711458;23;20378;-66
2021/03/26 00:13:01;;;;;;;2.30;1.95;;;19.80;47.80;;;;;;7711341;23;20062;-66
2021/03/26 00:16:02;;;;;;;2.65;2.00;;;19.80;47.80;;;;;;7711663;23;20013;-66
2021/03/26 00:19:04;;;;;;;3.13;2.28;;;19.90;47.80;;;;;;7711561;23;20375;-66
2021/03/26 00:22:04;;;;;;;2.78;2.05;;;19.80;47.80;;;;;;7711481;23;20337;-66
2021/03/26 00:25:07;;;;;;;2.95;2.10;;;19.80;47.80;;;;;;7711310;23;20143;-66
2021/03/26 00:28:07;;;;;;;2.53;2.00;;;19.80;47.80;;;;;;7711042;23;20009;-66
2021/03/26 00:31:08;;;;;;;3.17;2.10;;;19.80;47.80;;;;;;7711477;23;20011;-66
2021/03/26 00:34:09;;;;;;;3.17;2.22;;;19.80;47.80;;;;;;7711239;23;20080;-66
2021/03/26 00:37:10;;;;;;;3.30;2.42;;;19.80;47.80;;;;;;7711213;23;20020;-66
2021/03/26 00:40:13;;;;;;;2.88;1.95;;;19.80;47.80;;;;;;7711323;23;20092;-66
2021/03/26 00:43:14;;;;;;;2.30;2.10;;;19.80;47.80;;;;;;7711117;23;20023;-66
2021/03/26 00:46:14;;;;;;;2.92;2.10;;;19.80;47.70;;;;;;7710948;23;20008;-66
2021/03/26 00:49:15;;;;;;;3.28;2.08;;;19.80;47.70;;;;;;7710956;23;20159;-66
2021/03/26 00:52:16;;;;;;;3.15;2.10;;;19.80;47.70;;;;;;7711379;23;20062;-66
2021/03/26 00:55:18;;;;;;;2.95;2.25;;;19.80;47.80;;;;;;7711117;23;20012;-66
2021/03/26 00:58:19;;;;;;;4.32;2.38;;;19.80;47.70;;;;;;7711164;23;20080;-66
2021/03/26 01:01:20;;;;;;;3.15;2.08;;;19.80;47.70;;;;;;7710909;23;20026;-66
2021/03/26 01:04:20;;;;;;;2.80;2.25;;;19.80;47.80;;;;;;7710812;23;20008;-66
2021/03/26 01:07:21;;;;;;;2.97;2.10;;;19.80;47.80;;;;;;7711305;23;20008;-66
2021/03/26 01:10:25;;;;;;;3.05;2.15;;;19.80;47.70;;;;;;7710414;23;20004;-66
2021/03/26 01:13:26;;;;;;;3.80;2.47;;;19.80;47.70;;;;;;7711096;23;20005;-66
2021/03/26 01:16:27;;;;;;;3.05;2.20;;;19.80;47.70;;;;;;7710936;23;20008;-66
2021/03/26 01:19:28;;;;;;;2.50;2.00;;;19.80;47.70;;;;;;7710581;23;20066;-66
2021/03/26 01:22:28;;;;;;;3.05;2.38;;;19.80;47.70;;;;;;7710726;23;20013;-66
2021/03/26 01:25:32;;;;;;;4.07;2.70;;;19.80;48.40;;;;;;7711067;23;20028;-66
2021/03/26 01:28:33;;;;;;;2.55;2.13;;;19.80;47.70;;;;;;7710871;23;20001;-66
2021/03/26 01:31:34;;;;;;;3.90;2.25;;;19.80;47.80;;;;;;7711071;23;20376;-66
2021/03/26 01:34:35;;;;;;;3.00;2.22;;;19.80;47.70;;;;;;7711265;23;20004;-66
2021/03/26 01:37:36;;;;;;;2.95;2.22;;;19.80;47.80;;;;;;7710959;23;20005;-66
2021/03/26 01:40:43;;;;;;;2.92;2.33;;;19.80;47.80;;;;;;7710077;23;20345;-66
2021/03/26 01:43:44;;;;;;;3.50;2.30;;;19.80;47.70;;;;;;7711224;23;20011;-68
2021/03/26 01:46:46;;;;;;;3.17;2.50;;;19.80;47.70;;;;;;7711546;23;20319;-66
2021/03/26 01:49:47;;;;;;;3.30;2.25;;;19.80;47.80;;;;;;7710333;23;20452;-66
2021/03/26 01:52:47;;;;;;;3.45;2.28;;;19.80;47.80;;;;;;7710586;23;20035;-66
2021/03/26 01:55:49;;;;;;;2.85;2.30;;;19.80;47.80;;;;;;7710715;23;20028;-66
2021/03/26 01:58:50;;;;;;;4.05;2.25;;;19.80;47.80;;;;;;7710291;23;20305;-66
2021/03/26 02:01:56;;;;;;;2.83;2.13;;;19.80;47.70;;;;;;7710601;23;20009;-66
2021/03/26 02:04:56;;;;;;;3.65;2.33;;;19.80;47.80;;;;;;7710595;23;20008;-66
2021/03/26 02:07:57;;;;;;;2.78;2.08;;;19.80;47.70;;;;;;7710634;23;20535;-66
2021/03/26 02:11:03;;;;;;;2.72;2.30;;;19.80;47.80;;;;;;7710714;23;20028;-66
2021/03/26 02:14:09;;;;;;;2.78;2.08;;;19.80;47.80;;;;;;7710686;23;20055;-67
2021/03/26 02:17:13;;;;;;;3.83;2.85;;;19.80;47.70;;;;;;7710213;23;20009;-66
2021/03/26 02:20:39;;;;;;;3.92;2.60;;;19.80;47.80;;;;;;7710587;23;20135;-66
2021/03/26 02:23:39;;;;;;;3.65;2.30;;;19.80;47.70;;;;;;7712607;23;20039;-66
2021/03/26 02:26:44;;;;;;;2.75;2.17;;;19.80;47.70;;;;;;7712725;23;20387;-66
2021/03/26 02:29:45;;;;;;;3.50;2.72;;;19.80;47.70;;;;;;7713036;23;20000;-66
2021/03/26 02:32:46;;;;;;;3.13;2.40;;;19.80;47.80;;;;;;7712489;23;20004;-66
2021/03/26 02:35:51;;;;;;;3.78;2.25;;;19.80;47.80;;;;;;7712880;23;20055;-66
2021/03/26 02:38:55;;;;;;;3.22;2.70;;;19.80;47.70;;;;;;7712625;23;20411;-66
2021/03/26 02:42:00;;;;;;;2.60;2.38;;;19.80;47.80;;;;;;7712594;23;20092;-66
2021/03/26 02:45:17;;;;;;;2.95;2.25;;;19.80;47.80;;;;;;7712546;23;20018;-66
2021/03/26 02:48:26;;;;;;;3.22;2.40;;;19.80;47.80;;;;;;7712330;23;20020;-66
2021/03/26 02:51:41;;;;;;;4.32;2.65;;;19.80;47.80;;;;;;7712135;23;20179;-66
2021/03/26 02:54:49;;;;;;;3.58;2.40;;;19.80;47.70;;;;;;7712036;23;20005;-66
2021/03/26 02:57:58;;;;;;;3.00;2.38;;;19.80;47.80;;;;;;7712435;23;20019;-66
2021/03/26 03:01:07;;;;;;;3.58;2.42;;;19.80;47.70;;;;;;7712864;23;20431;-66
2021/03/26 03:04:14;;;;;;;3.65;2.45;;;19.80;47.80;;;;;;7712240;23;20011;-66
2021/03/26 03:07:23;;;;;;;2.67;2.28;;;19.80;47.70;;;;;;7712264;23;20087;-66
2021/03/26 03:10:35;;;;;;;3.92;2.70;;;19.80;47.80;;;;;;7711657;23;20007;-66
2021/03/26 03:13:46;;;;;;;3.03;2.40;;;19.80;47.80;;;;;;7711987;23;20320;-66
2021/03/26 03:16:54;;;;;;;3.40;2.58;;;19.80;47.70;;;;;;7712130;23;20009;-66
2021/03/26 03:20:22;;;;;;;3.45;2.60;;;19.80;47.80;;;;;;7712131;23;20007;-66
2021/03/26 03:23:34;;;;;;;2.95;2.42;;;19.80;47.70;;;;;;7712014;23;20043;-66
2021/03/26 03:26:50;;;;;;;3.30;2.42;;;19.80;47.70;;;;;;7712173;23;20383;-66
2021/03/26 03:30:18;;;;;;;3.35;2.70;;;19.80;47.70;;;;;;7711826;23;19996;-66
2021/03/26 03:33:44;;;;;;;4.90;2.97;;;19.80;47.80;;;;;;7710608;23;20452;-66
2021/03/26 03:37:08;;;;;;;2.83;2.33;;;19.80;47.70;;;;;;7712347;23;20040;-66
2021/03/26 03:40:26;;;;;;;3.67;2.60;;;19.80;47.70;;;;;;7710983;23;20098;-67
2021/03/26 03:43:38;;;;;;;4.47;2.53;;;19.80;47.70;;;;;;7710402;23;20543;-66
2021/03/26 03:46:49;;;;;;;4.20;3.15;;;19.80;47.70;;;;;;7711521;23;20020;-66
2021/03/26 03:49:54;;;;;;;4.18;3.08;;;19.80;47.70;;;;;;7711556;23;20059;-66
2021/03/26 03:53:04;;;;;;;3.40;2.60;;;19.80;47.70;;;;;;7712105;23;20001;-66
2021/03/26 03:56:40;;;;;;;4.25;2.80;;;19.80;47.70;;;;;;7711678;23;20325;-66
2021/03/26 03:59:49;;;;;;;3.13;2.50;;;19.80;47.70;;;;;;7711546;23;20344;-67
2021/03/26 04:03:09;;;;;;;2.80;2.45;;;19.80;47.70;;;;;;7711761;23;20244;-66
2021/03/26 04:06:18;;;;;;;3.35;2.53;;;19.80;47.70;;;;;;7711547;23;20306;-66
2021/03/26 04:09:21;;;;;;;4.07;2.80;;;19.80;47.70;;;;;;7711698;23;20425;-66
2021/03/26 04:12:27;;;;;;;3.53;2.58;;;19.80;47.70;;;;;;7711560;23;20367;-66
2021/03/26 04:15:34;;;;;;;3.58;2.40;;;19.80;47.70;;;;;;7711499;23;20031;-66
2021/03/26 04:18:55;;;;;;;3.17;2.60;;;19.80;47.70;;;;;;7711439;23;20035;-66
2021/03/26 04:22:02;;;;;;;3.25;2.60;;;19.80;47.80;;;;;;7695202;23;20099;-66
2021/03/26 04:25:15;;;;;;;3.05;2.40;;;19.80;47.70;;;;;;7711090;23;20420;-66
2021/03/26 04:28:22;;;;;;;4.25;2.47;;;19.80;47.70;;;;;;7711255;23;20004;-66
2021/03/26 04:31:29;;;;;;;3.72;2.70;;;19.80;47.70;;;;;;7711629;23;20384;-66
2021/03/26 04:34:30;;;;;;;3.35;2.80;;;19.80;47.70;;;;;;7711646;23;20012;-66
2021/03/26 04:37:37;;;;;;;4.38;2.92;;;19.80;47.70;;;;;;7711045;23;20654;-66
2021/03/26 04:40:43;;;;;;;2.83;2.40;;;19.80;47.70;;;;;;7710702;23;20013;-66
2021/03/26 04:44:02;;;;;;;5.25;3.00;;;19.80;47.70;;;;;;7711010;23;20009;-66
2021/03/26 04:47:18;;;;;;;3.40;2.45;;;19.80;47.80;;;;;;7710767;23;20071;-66
2021/03/26 04:50:29;;;;;;;3.40;2.47;;;19.80;47.70;;;;;;7710917;23;20009;-66
2021/03/26 04:53:49;;;;;;;5.60;3.00;;;19.80;47.80;;;;;;7710996;23;20026;-66
2021/03/26 04:57:00;;;;;;;2.55;2.35;;;19.80;47.70;;;;;;7711090;23;20004;-66
2021/03/26 05:00:38;;;;;;;3.15;2.67;;;19.80;47.70;;;;;;7710769;23;20328;-66
2021/03/26 05:03:43;;;;;;;2.95;2.38;;;19.80;47.70;;;;;;7711176;23;20004;-66
2021/03/26 05:06:49;;;;;;;3.85;2.60;;;19.80;47.70;;;;;;7710837;23;20012;-66
2021/03/26 05:09:54;;;;;;;3.45;2.70;;;19.80;47.70;;;;;;7711428;23;20008;-66
2021/03/26 05:13:04;;;;;;;4.28;2.75;;;19.80;47.70;;;;;;7711046;23;20008;-66
2021/03/26 05:16:25;;;;;;;3.10;2.70;;;19.80;47.70;;;;;;7710826;23;20008;-66
2021/03/26 05:19:33;;;;;;;3.42;2.63;;;19.80;47.70;;;;;;7710685;23;20005;-66
2021/03/26 05:22:54;;;;;;;4.45;2.65;;;19.80;47.70;;;;;;7710967;23;20347;-66
2021/03/26 05:26:00;;;;;;;3.53;2.65;;;19.80;47.70;;;;;;7710891;23;20036;-66
2021/03/26 05:29:03;;;;;;;2.78;2.38;;;19.80;47.70;;;;;;7711891;23;20016;-66
2021/03/26 05:32:19;;;;;;;2.95;2.58;;;19.80;47.70;;;;;;7711183;23;20001;-66
2021/03/26 05:35:22;;;;;;;5.18;2.83;;;19.80;47.70;;;;;;7710978;23;20028;-66
2021/03/26 05:38:41;;;;;;;3.90;2.80;;;19.80;47.80;;;;;;7710642;23;20012;-66
2021/03/26 05:42:19;;;;;;;3.45;2.50;;;19.80;47.80;;;;;;7710660;23;20020;-66
2021/03/26 05:45:40;;;;;;;3.50;2.50;;;19.80;47.80;;;;;;7711060;23;20340;-66
2021/03/26 05:49:15;;;;;;;2.85;2.35;;;19.80;47.80;;;;;;7710550;23;20012;-66
2021/03/26 05:52:30;;;;;;;4.77;2.43;;;19.80;47.80;;;;;;7710445;23;20491;-66
2021/03/26 05:56:03;;;;;;;3.50;2.58;;;19.80;47.80;;;;;;7710777;23;20001;-66
2021/03/26 05:59:41;;;;;;;3.88;2.70;;;19.80;47.80;;;;;;7713411;23;20004;-66
2021/03/26 06:02:55;;;;;;;3.97;2.78;;;19.80;47.80;;;;;;7713064;23;20046;-66
2021/03/26 06:06:27;;;;;;;4.82;2.72;;;19.80;47.80;;;;;;7713091;23;20083;-65
2021/03/26 06:10:04;;;;;;;2.85;2.50;;;19.80;47.80;;;;;;7712964;23;20027;-66
2021/03/26 06:13:25;;;;;;;3.78;2.60;;;19.80;47.80;;;;;;7713063;23;20083;-66
2021/03/26 06:16:48;;;;;;;4.10;3.05;;;19.90;47.90;;;;;;7713090;23;20079;-66
2021/03/26 06:20:15;;;;;;;3.92;2.90;;;19.80;47.80;;;;;;7712809;23;20079;-66
2021/03/26 06:23:39;;;;;;;3.83;2.70;;;19.80;47.80;;;;;;7713144;23;20032;-66
2021/03/26 06:27:06;;;;;;;3.72;2.88;;;19.90;47.90;;;;;;7703485;23;20009;-66
2021/03/26 06:30:30;;;;;;;3.95;2.83;;;19.90;47.80;;;;;;7708377;23;20015;-66
2021/03/26 06:34:10;;;;;;;3.75;2.55;;;19.80;47.80;;;;;;7708954;23;20035;-66
2021/03/26 06:37:32;;;;;;;2.97;2.58;;;19.90;47.80;;;;;;7711053;23;20008;-66
2021/03/26 06:40:35;;;;;;;3.95;2.85;;;19.90;47.80;;;;;;7710790;23;20088;-66
2021/03/26 06:44:15;;;;;;;2.90;2.35;;;19.90;47.80;;;;;;7709673;23;20000;-66
2021/03/26 06:47:43;;;;;;;3.75;2.70;;;19.90;47.80;;;;;;7708486;23;20011;-67
2021/03/26 06:51:06;;;;;;;3.53;2.35;;;19.80;47.80;;;;;;7711212;23;20000;-65
2021/03/26 06:55:03;;;;;;;3.63;2.40;;;19.90;47.80;;;;;;7711189;23;20663;-66
2021/03/26 06:58:34;;;;;;;3.75;2.53;;;19.90;47.80;;;;;;7659740;23;20503;-66
2021/03/26 07:02:03;;;;;;;3.17;2.30;;;19.90;47.90;;;;;;7711248;23;20020;-66
2021/03/26 07:05:13;;;;;;;3.80;2.83;;;19.90;47.80;;;;;;7711391;23;20091;-66
2021/03/26 07:08:32;;;;;;;4.85;2.67;;;19.90;47.90;;;;;;7711165;23;20051;-66
2021/03/26 07:11:50;;;;;;;3.78;2.55;;;19.90;47.90;;;;;;7712011;23;20015;-66
2021/03/26 07:15:00;;;;;;;6.43;2.70;;;19.90;47.90;;;;;;7711899;23;20035;-65
2021/03/26 07:18:17;;;;;;;3.88;2.70;;;19.90;47.90;;;;;;7707756;23;20012;-66
2021/03/26 07:21:33;;;;;;;4.97;2.78;;;19.90;47.90;;;;;;7710761;23;20020;-66
2021/03/26 07:25:00;;;;;;;3.47;2.35;;;19.90;47.90;;;;;;7710158;23;20447;-66
2021/03/26 07:28:09;;;;;;;4.25;2.70;;;20.00;47.80;;;;;;7710595;23;20055;-66
2021/03/26 07:31:18;;;;;;;3.22;2.70;;;20.00;47.70;;;;;;7709969;23;20016;-66
2021/03/26 07:34:37;;;;;;;3.53;2.63;;;20.00;47.60;;;;;;7710088;23;20070;-66
2021/03/26 07:37:54;;;;;;;4.15;2.70;;;20.00;47.50;;;;;;7710544;23;20004;-66
2021/03/26 07:41:13;;;;;;;3.72;2.60;;;20.10;47.60;;;;;;7710226;23;20387;-66
2021/03/26 07:45:01;;;;;;;3.45;2.63;;;20.10;47.50;;;;;;7709717;23;20431;-66
2021/03/26 07:48:30;;;;;;;4.97;3.03;;;20.10;47.50;;;;;;7709125;23;20031;-66
2021/03/26 07:51:36;;;;;;;5.03;2.60;;;20.10;47.50;;;;;;7710519;23;20001;-66
2021/03/26 07:55:03;;;;;;;4.72;2.67;;;20.10;47.50;;;;;;7710221;23;20008;-66
2021/03/26 07:58:26;;;;;;;5.72;2.90;;;20.10;47.50;;;;;;7709342;23;20039;-66
2021/03/26 08:01:35;;;;;;;5.40;2.60;;;20.10;47.60;;;;;;7710289;23;20019;-66
2021/03/26 08:04:59;;;;;;;2.75;2.25;;;20.10;47.70;;;;;;7705256;23;20000;-66
2021/03/26 08:08:13;;;;;;;3.53;2.53;;;20.10;47.70;;;;;;7708309;23;20009;-66
2021/03/26 08:11:46;;;;;;;4.55;2.88;;;20.10;47.80;;;;;;7710095;23;20043;-66
2021/03/26 08:15:00;;;;;;;4.45;2.92;;;20.00;47.80;;;;;;7659444;23;20040;-66
2021/03/26 08:18:28;;;;;;;3.85;2.55;;;20.00;47.80;;;;;;7709452;23;20489;-66
2021/03/26 08:21:56;;;;;;;3.33;2.55;;;20.10;47.90;;;;;;7708569;23;20289;-66
2021/03/26 08:25:36;;;;;;;3.53;2.78;;;20.10;47.70;;;;;;7709654;23;20005;-66
2021/03/26 08:28:48;;;;;;;4.35;2.60;;;20.10;47.70;;;;;;7709448;23;20432;-66
2021/03/26 08:31:54;;;;;;;4.85;2.55;;;20.10;47.70;;;;;;7711104;23;20016;-67
2021/03/26 08:35:14;;;;;;;15.93;8.77;;;20.10;47.80;;;;;;7708050;23;20066;-66
2021/03/26 08:38:40;;;;;;;9.38;4.70;;;20.10;47.30;;;;;;7709349;23;20004;-66
2021/03/26 08:41:46;;;;;;;11.57;5.75;;;20.10;47.70;;;;;;7647287;23;20431;-66
2021/03/26 08:44:54;;;;;;;12.32;5.13;;;20.10;47.70;;;;;;7708480;23;20447;-66
2021/03/26 08:48:23;;;;;;;9.45;5.28;;;20.10;47.80;;;;;;7709376;23;20027;-66
2021/03/26 08:51:49;;;;;;;9.82;4.55;;;20.00;47.80;;;;;;7709733;23;20440;-66
2021/03/26 08:55:15;;;;;;;9.48;5.20;;;20.00;47.80;;;;;;7708890;23;20379;-66
2021/03/26 08:58:33;;;;;;;11.25;5.47;;;20.00;47.90;;;;;;7708611;23;20013;-66
2021/03/26 09:01:56;;;;;;;7.18;4.55;;;20.00;47.90;;;;;;7709767;23;20100;-66
2021/03/26 09:05:32;;;;;;;9.18;4.70;;;20.00;47.90;;;;;;7709530;23;20076;-66
2021/03/26 09:08:58;;;;;;;9.80;4.47;;;20.00;47.90;;;;;;7708973;23;20008;-66
2021/03/26 09:12:24;;;;;;;8.43;4.60;;;20.00;47.90;;;;;;7707735;23;20451;-66
2021/03/26 09:15:43;;;;;;;10.13;5.75;;;20.00;47.90;;;;;;7708834;23;20494;-66
2021/03/26 09:19:10;;;;;;;7.65;4.30;;;20.00;47.90;;;;;;7708801;23;20031;-66
2021/03/26 09:22:34;;;;;;;6.90;3.95;;;20.00;47.90;;;;;;7708728;23;20012;-66
2021/03/26 09:25:45;;;;;;;8.73;4.43;;;20.00;47.90;;;;;;7709299;23;20000;-66
2021/03/26 09:28:51;;;;;;;7.30;3.88;;;20.00;48.00;;;;;;7709164;23;20433;-66
2021/03/26 09:31:57;;;;;;;9.45;4.95;;;20.00;48.00;;;;;;7709975;23;20004;-67
2021/03/26 09:35:10;;;;;;;10.07;4.57;;;20.00;48.00;;;;;;7711402;23;20027;-66
2021/03/26 09:38:13;;;;;;;6.10;3.83;;;20.00;48.00;;;;;;7710935;23;20344;-67
2021/03/26 09:41:26;;;;;;;7.78;4.28;;;20.00;48.00;;;;;;7711769;23;20036;-66
2021/03/26 09:44:56;;;;;;;7.47;3.85;;;20.00;48.00;;;;;;7711946;23;20144;-66
2021/03/26 09:48:21;;;;;;;6.25;3.97;;;20.00;48.00;;;;;;7709670;23;20095;-66
2021/03/26 09:51:48;;;;;;;6.75;3.95;;;20.00;48.00;;;;;;7712075;23;20097;-66
2021/03/26 09:54:52;;;;;;;9.65;4.07;;;20.00;48.40;;;;;;7711912;23;20004;-66
2021/03/26 09:57:58;;;;;;;5.65;3.63;;;20.00;48.00;;;;;;7711031;23;20429;-66
2021/03/26 10:01:18;;;;;;;6.65;4.00;;;20.00;48.00;;;;;;7711184;23;20009;-66
2021/03/26 10:04:24;;;;;;;6.05;3.90;;;20.00;48.00;;;;;;7711645;23;20006;-66
2021/03/26 10:07:46;;;;;;;6.55;3.72;;;20.00;48.00;;;;;;7710629;23;20009;-66
2021/03/26 10:10:48;;;;;;;5.82;3.65;;;20.00;48.00;;;;;;7710399;23;20036;-66
2021/03/26 10:13:56;;;;;;;6.25;4.05;;;20.00;48.00;;;;;;7711368;23;20433;-66
2021/03/26 10:17:37;;;;;;;6.40;3.70;;;20.00;48.00;;;;;;7710870;23;20019;-66
2021/03/26 10:21:10;;;;;;;5.90;3.15;;;20.00;48.00;;;;;;7711587;23;20071;-66
2021/03/26 10:24:34;;;;;;;5.43;3.53;;;20.00;48.00;;;;;;7711104;23;20341;-66
2021/03/26 10:27:49;;;;;;;6.45;3.30;;;20.00;48.00;;;;;;7710353;23;20005;-66
2021/03/26 10:31:01;;;;;;;6.43;3.72;;;20.00;48.00;;;;;;7711061;23;20270;-66
2021/03/26 10:34:08;;;;;;;5.90;3.53;;;20.00;48.00;;;;;;7711148;23;20004;-66
2021/03/26 10:37:42;;;;;;;5.60;3.60;;;20.00;48.00;;;;;;7710031;23;20036;-66
2021/03/26 10:40:57;;;;;;;4.65;3.33;;;20.00;48.20;;;;;;7710517;23;20058;-66
2021/03/26 10:44:14;;;;;;;;;;;20.00;48.00;;;;;;7710230;23;20000;-66
2021/03/26 10:47:27;;;;;;;5.43;3.20;;;20.00;48.00;;;;;;7709991;23;19904;-66
2021/03/26 10:50:44;;;;;;;5.50;2.90;;;20.00;48.00;;;;;;7708921;23;20349;-67
2021/03/26 10:53:50;;;;;;;4.25;2.80;;;20.00;48.10;;;;;;7710860;23;20066;-66
2021/03/26 10:56:56;;;;;;;4.60;3.28;;;20.00;48.00;;;;;;7710872;23;20012;-66
2021/03/26 11:00:15;;;;;;;3.75;2.95;;;20.00;48.10;;;;;;7711023;23;20032;-66
2021/03/26 11:03:21;;;;;;;4.05;2.70;;;20.00;48.00;;;;;;7710435;23;20004;-66
2021/03/26 11:06:29;;;;;;;4.50;3.00;;;20.00;48.10;;;;;;7711466;23;20011;-67
2021/03/26 11:09:43;;;;;;;3.85;2.55;;;20.00;48.00;;;;;;7710113;23;20083;-66
2021/03/26 11:12:50;;;;;;;5.80;2.87;;;20.00;48.10;;;;;;7710313;23;19996;-66
2021/03/26 11:15:56;;;;;;;3.58;2.50;;;20.00;48.10;;;;;;7710957;23;20707;-66
2021/03/26 11:19:07;;;;;;;4.13;3.05;;;20.00;48.10;;;;;;7709936;23;20008;-66
2021/03/26 11:22:22;;;;;;;5.05;3.03;;;20.00;48.10;;;;;;7711168;23;20013;-65
2021/03/26 11:25:33;;;;;;;5.30;2.97;;;20.00;48.00;;;;;;7710213;23;20028;-66
2021/03/26 11:28:45;;;;;;;4.30;3.15;;;20.00;48.10;;;;;;7709589;23;20000;-66
2021/03/26 11:32:08;;;;;;;4.45;2.83;;;20.00;48.10;;;;;;7710811;23;20024;-66
2021/03/26 11:35:16;;;;;;;3.20;2.47;;;20.00;48.10;;;;;;7709004;23;20466;-66
2021/03/26 11:38:25;;;;;;;4.50;2.65;;;20.00;48.10;;;;;;7708407;23;20336;-66
2021/03/26 11:41:37;;;;;;;4.00;2.78;;;20.00;48.10;;;;;;7710651;23;20457;-66
2021/03/26 11:44:43;;;;;;;4.05;2.85;;;20.00;48.10;;;;;;7708146;23;20008;-65
2021/03/26 11:47:53;;;;;;;3.40;2.47;;;20.00;48.10;;;;;;7709050;23;20256;-66
2021/03/26 11:51:05;;;;;;;3.60;2.70;;;20.00;48.10;;;;;;7709645;23;20314;-66
2021/03/26 11:54:27;;;;;;;3.42;2.50;;;20.00;48.10;;;;;;7708886;23;20032;-66
2021/03/26 11:57:35;;;;;;;3.63;2.60;;;20.00;48.10;;;;;;7709927;23;20332;-66
2021/03/26 12:00:40;;;;;;;3.30;2.58;;;20.00;48.10;;;;;;7710035;23;20391;-66
2021/03/26 12:04:08;;;;;;;4.05;2.83;;;20.00;48.10;;;;;;7709274;23;20027;-66
2021/03/26 12:07:13;;;;;;;3.67;2.55;;;20.00;48.10;;;;;;7709964;23;20225;-66
2021/03/26 12:10:31;;;;;;;3.47;2.38;;;20.00;48.10;;;;;;7709238;23;20087;-66
2021/03/26 12:13:38;;;;;;;3.15;2.22;;;20.00;48.10;;;;;;7710005;23;20028;-65
2021/03/26 12:16:59;;;;;;;3.25;2.42;;;20.00;48.10;;;;;;7709155;23;20011;-66
2021/03/26 12:20:16;;;;;;;3.90;2.72;;;20.00;48.20;;;;;;7709804;23;20012;-66
2021/03/26 12:23:37;;;;;;;4.82;2.13;;;20.00;48.20;;;;;;7710217;23;20005;-66
2021/03/26 12:26:52;;;;;;;3.83;2.58;;;20.00;48.20;;;;;;7708710;23;20008;-66
2021/03/26 12:29:58;;;;;;;3.60;2.07;;;20.00;48.20;;;;;;7709322;23;20011;-66
2021/03/26 12:33:08;;;;;;;3.58;2.65;;;19.90;48.10;;;;;;7710087;23;20571;-66
2021/03/26 12:36:15;;;;;;;4.60;2.63;;;20.00;48.20;;;;;;7709786;23;20076;-66
2021/03/26 12:39:31;;;;;;;3.45;2.53;;;19.90;48.10;;;;;;7709142;23;20062;-66
2021/03/26 12:42:42;;;;;;;3.60;2.47;;;19.90;48.10;;;;;;7709884;23;20027;-66
2021/03/26 12:45:52;;;;;;;3.60;2.42;;;20.00;48.20;;;;;;7709795;23;20015;-66
2021/03/26 12:48:53;;;;;;;3.08;2.35;;;20.00;48.20;;;;;;7708529;23;20559;-66
2021/03/26 12:52:01;;;;;;;2.97;2.33;;;19.90;48.10;;;;;;7709247;23;20016;-66
2021/03/26 12:55:04;;;;;;;3.45;2.47;;;20.00;48.20;;;;;;7709378;23;20058;-66
2021/03/26 12:58:47;;;;;;;3.90;2.33;;;19.90;48.20;;;;;;7709477;23;20049;-65
2021/03/26 13:01:57;;;;;;;2.95;2.20;;;19.90;48.20;;;;;;7707853;23;20012;-66
2021/03/26 13:05:09;;;;;;;2.88;2.10;;;20.00;48.20;;;;;;7708273;23;20008;-66
2021/03/26 13:08:17;;;;;;;3.60;2.40;;;19.90;48.20;;;;;;7709139;23;20107;-66
2021/03/26 13:11:27;;;;;;;3.00;2.03;;;19.90;48.20;;;;;;7709691;23;20004;-66
2021/03/26 13:14:34;;;;;;;3.03;2.40;;;19.90;48.20;;;;;;7709560;23;20027;-66
2021/03/26 13:17:35;;;;;;;2.95;2.25;;;19.90;48.20;;;;;;7708179;23;20399;-66
2021/03/26 13:21:05;;;;;;;3.17;2.13;;;19.90;48.20;;;;;;7709153;23;20004;-66
2021/03/26 13:24:37;;;;;;;2.90;2.30;;;19.90;48.20;;;;;;7709444;23;20004;-66
2021/03/26 13:27:49;;;;;;;3.42;2.22;;;19.90;48.20;;;;;;7709053;23;20000;-66
2021/03/26 13:31:01;;;;;;;3.70;2.10;;;19.90;48.20;;;;;;7708276;23;20090;-66
2021/03/26 13:34:14;;;;;;;3.38;2.20;;;20.00;48.30;;;;;;7709651;23;20035;-66
2021/03/26 13:37:22;;;;;;;2.90;2.17;;;19.90;48.20;;;;;;7708899;23;20280;-66
2021/03/26 13:40:24;;;;;;;2.78;2.15;;;19.90;48.20;;;;;;7708600;23;20038;-66
2021/03/26 13:43:39;;;;;;;2.95;1.98;;;20.00;48.30;;;;;;7706417;23;20035;-66
2021/03/26 13:46:42;;;;;;;2.92;2.30;;;19.90;48.20;;;;;;7708110;23;20069;-66
2021/03/26 13:49:53;;;;;;;2.10;1.90;;;19.90;48.20;;;;;;7707991;23;20020;-66
2021/03/26 13:52:54;;;;;;;2.78;2.22;;;19.90;48.20;;;;;;7708956;23;20388;-66
2021/03/26 13:56:17;;;;;;;2.97;2.05;;;19.90;48.20;;;;;;7708163;23;20075;-66
2021/03/26 13:59:41;;;;;;;3.10;1.88;;;19.90;48.20;;;;;;7708129;23;20080;-66
2021/03/26 14:02:45;;;;;;;2.47;2.03;;;20.00;48.40;;;;;;7708813;23;20027;-66
2021/03/26 14:05:52;;;;;;;3.10;1.77;;;19.90;48.30;;;;;;7706938;23;20325;-66
2021/03/26 14:08:52;;;;;;;2.97;1.95;;;19.90;48.20;;;;;;7707823;23;20004;-66
2021/03/26 14:12:07;;;;;;;1.92;1.67;;;19.90;48.30;;;;;;7708196;23;20028;-66
2021/03/26 14:15:21;;;;;;;2.35;1.67;;;20.00;48.40;;;;;;7709459;23;20388;-67
2021/03/26 14:18:27;;;;;;;2.92;1.88;;;19.90;48.30;;;;;;7707426;23;20005;-66
2021/03/26 14:21:56;;;;;;;2.95;1.98;;;19.90;48.30;;;;;;7710437;23;20059;-66
2021/03/26 14:25:17;;;;;;;4.30;2.05;;;19.90;48.30;;;;;;7702156;23;20015;-66
2021/03/26 14:28:29;;;;;;;2.25;1.80;;;19.90;48.30;;;;;;7710207;23;20052;-66
2021/03/26 14:31:34;;;;;;;2.55;2.10;;;19.90;48.30;;;;;;7709550;23;20008;-66
2021/03/26 14:34:44;;;;;;;5.65;2.22;;;19.90;48.30;;;;;;7710815;23;20348;-66
2021/03/26 14:37:52;;;;;;;2.30;1.83;;;20.00;48.40;;;;;;7709375;23;20001;-66
2021/03/26 14:41:25;;;;;;;3.67;2.15;;;20.00;48.40;;;;;;7710953;23;20031;-66
2021/03/26 14:44:35;;;;;;;3.72;2.25;;;20.00;48.40;;;;;;7709733;23;20008;-66
2021/03/26 14:47:39;;;;;;;4.13;2.00;;;20.00;48.40;;;;;;7709333;23;20020;-66
2021/03/26 14:50:43;;;;;;;5.85;2.40;;;19.90;48.30;;;;;;7710271;23;20377;-66
2021/03/26 14:53:50;;;;;;;2.50;1.70;;;20.00;48.40;;;;;;7710236;23;20032;-66
2021/03/26 14:56:58;;;;;;;2.97;1.90;;;19.90;48.30;;;;;;7709693;23;20008;-66
2021/03/26 15:00:20;;;;;;;3.28;1.92;;;20.00;48.40;;;;;;7711021;23;20001;-66
2021/03/26 15:03:44;;;;;;;2.45;2.08;;;19.90;48.40;;;;;;7710207;23;20083;-66
2021/03/26 15:06:58;;;;;;;3.28;2.45;;;19.90;48.30;;;;;;7710154;23;20011;-66
2021/03/26 15:10:22;;;;;;;3.08;2.22;;;20.00;48.50;;;;;;7708607;23;20008;-66
2021/03/26 15:13:34;;;;;;;3.28;2.05;;;20.00;48.40;;;;;;7709970;23;20008;-66
2021/03/26 15:16:49;;;;;;;4.20;2.20;;;20.00;48.40;;;;;;7709237;23;20047;-66
2021/03/26 15:19:53;;;;;;;3.80;2.10;;;19.90;48.30;;;;;;7709031;23;20479;-66
2021/03/26 15:23:24;;;;;;;2.20;1.52;;;19.90;48.30;;;;;;7710105;23;20048;-66
2021/03/26 15:26:32;;;;;;;3.45;2.05;;;19.90;48.30;;;;;;7704591;23;20083;-66
2021/03/26 15:29:56;;;;;;;2.72;1.80;;;19.90;48.30;;;;;;7708936;23;20008;-66
2021/03/26 15:33:22;;;;;;;5.05;2.00;;;20.00;48.40;;;;;;7708966;23;20055;-66
2021/03/26 15:36:40;;;;;;;3.53;2.22;;;19.90;48.30;;;;;;7710191;23;20001;-66
2021/03/26 15:39:59;;;;;;;2.78;1.90;;;19.90;48.30;;;;;;7709616;23;20036;-66
2021/03/26 15:43:17;;;;;;;2.53;1.60;;;20.00;48.40;;;;;;7709139;23;20024;-66
2021/03/26 15:46:24;;;;;;;2.78;1.98;;;20.00;48.40;;;;;;7707390;23;20012;-65
2021/03/26 15:49:57;;;;;;;2.58;1.90;;;19.90;48.40;;;;;;7708339;23;20012;-66
2021/03/26 15:53:23;;;;;;;3.08;1.88;;;20.00;48.50;;;;;;7703799;23;20005;-66
2021/03/26 15:56:40;;;;;;;2.80;2.30;;;20.00;48.50;;;;;;7709428;23;20055;-66
2021/03/26 16:00:08;;;;;;;20.67;8.27;;;19.90;48.50;;;;;;7708847;23;20035;-66
2021/03/26 16:03:38;;;;;;;30.15;13.55;;;19.90;47.60;;;;;;7710204;23;20019;-66
2021/03/26 16:06:53;;;;;;;33.03;14.85;;;19.90;47.00;;;;;;7709730;23;20004;-66
2021/03/26 16:10:22;;;;;;;49.88;17.02;;;19.80;46.70;;;;;;7707675;23;20004;-66
2021/03/26 16:13:44;;;;;;;78.97;20.02;;;19.80;46.70;;;;;;7709472;23;20337;-66
2021/03/26 16:16:51;;;;;;;45.78;17.25;;;19.80;46.00;;;;;;7709385;23;20036;-66
2021/03/26 16:20:18;;;;;;;33.40;13.18;;;19.80;46.10;;;;;;7709626;23;20055;-66
2021/03/26 16:23:24;;;;;;;27.83;11.57;;;19.90;46.80;;;;;;7707800;23;20023;-66
2021/03/26 16:26:38;;;;;;;38.05;12.57;;;19.90;46.90;;;;;;7709491;23;20001;-66
2021/03/26 16:30:16;;;;;;;25.48;10.60;;;19.90;46.90;;;;;;7708195;23;20486;-66
2021/03/26 16:33:45;;;;;;;21.55;8.90;;;19.90;47.10;;;;;;7708645;23;20001;-66
2021/03/26 16:36:58;;;;;;;19.00;7.43;;;19.90;47.20;;;;;;7707224;23;20033;-66
2021/03/26 16:39:58;;;;;;;13.77;7.18;;;19.90;47.30;;;;;;7707932;23;20450;-66
2021/03/26 16:43:32;;;;;;;18.08;7.15;;;19.90;47.30;;;;;;7708610;23;20004;-66
2021/03/26 16:46:50;;;;;;;14.52;6.30;;;19.90;47.40;;;;;;7707340;23;20028;-66